Time;durP1;ratioP1;P1;durP2;ratioP2;P2;SDS_P1;SDS_P2;PMS_P1;PMS_P2;Temp;Humidity;BMP_temperature;BMP_pressure;BME280_temperature;BME280_humidity;BME280_pressure;Samples;Min_cycle;Max_cycle;Signal;HPM_P1;HPM_P2
2022/03/05 00:00:43;;;;;;;34.80;12.80;;;;;;;0.03;87.16;100680.84;5020195;28;20452;-72
2022/03/05 00:03:09;;;;;;;30.27;11.93;;;;;;;-0.04;87.24;100689.56;5028140;28;20033;-72
2022/03/05 00:05:34;;;;;;;21.30;9.27;;;;;;;-0.06;87.17;100678.44;5026916;28;20633;-74
2022/03/05 00:08:00;;;;;;;23.50;8.80;;;;;;;-0.12;87.16;100681.13;5028285;28;20048;-72
2022/03/05 00:10:25;;;;;;;24.67;9.00;;;;;;;-0.13;87.10;100680.28;5025313;28;20025;-72
2022/03/05 00:12:51;;;;;;;28.73;10.45;;;;;;;-0.18;87.23;100681.25;5021998;28;20022;-74
2022/03/05 00:15:18;;;;;;;26.70;9.18;;;;;;;-0.19;87.28;100682.09;5026391;28;20354;-73
2022/03/05 00:17:44;;;;;;;26.38;8.88;;;;;;;-0.29;87.27;100676.25;5021921;28;20034;-73
2022/03/05 00:20:10;;;;;;;26.40;8.95;;;;;;;-0.31;87.57;100678.00;5027844;28;20034;-72
2022/03/05 00:22:36;;;;;;;25.30;9.35;;;;;;;-0.34;87.93;100676.31;5027488;28;20029;-72
2022/03/05 00:25:03;;;;;;;24.63;9.18;;;;;;;-0.36;87.62;100672.91;5025805;28;20032;-70
2022/03/05 00:27:28;;;;;;;22.98;8.52;;;;;;;-0.38;87.85;100681.53;5028158;28;20046;-72
2022/03/05 00:29:54;;;;;;;24.40;9.60;;;;;;;-0.42;87.87;100679.88;5028727;28;20118;-70
2022/03/05 00:32:19;;;;;;;24.77;8.45;;;;;;;-0.45;88.38;100682.50;5020800;28;20038;-72
2022/03/05 00:34:45;;;;;;;25.52;8.52;;;;;;;-0.56;88.55;100688.66;5019689;28;20526;-72
2022/03/05 00:37:10;;;;;;;26.42;9.13;;;;;;;-0.66;88.84;100675.97;5026013;28;20105;-72
2022/03/05 00:39:36;;;;;;;25.48;8.77;;;;;;;-0.77;89.22;100676.97;5021227;28;20041;-74
2022/03/05 00:42:01;;;;;;;28.67;9.30;;;;;;;-0.86;89.15;100677.09;5023532;28;20412;-71
2022/03/05 00:44:28;;;;;;;22.42;8.60;;;;;;;-0.91;89.89;100676.31;5028772;28;20076;-71
2022/03/05 00:46:54;;;;;;;16.65;8.07;;;;;;;-0.88;90.18;100681.41;5026837;28;20121;-72
2022/03/05 00:49:20;;;;;;;24.67;9.43;;;;;;;-0.89;90.23;100684.00;5023224;28;20109;-74
2022/03/05 00:51:45;;;;;;;25.08;9.40;;;;;;;-0.92;90.15;100684.91;5032406;28;20545;-70
2022/03/05 00:54:10;;;;;;;21.92;7.95;;;;;;;-0.86;90.58;100689.94;5029464;28;20045;-70
2022/03/05 00:56:35;;;;;;;28.30;9.27;;;;;;;-0.92;90.11;100690.06;5020316;28;20041;-71
2022/03/05 00:59:01;;;;;;;25.77;8.70;;;;;;;-1.01;90.39;100691.00;5028937;28;20380;-70
2022/03/05 01:01:26;;;;;;;25.90;9.25;;;;;;;-1.03;90.95;100695.34;5025869;28;20095;-73
2022/03/05 01:03:52;;;;;;;34.28;9.15;;;;;;;-1.06;91.06;100697.94;5026499;28;20017;-71
2022/03/05 01:06:17;;;;;;;29.40;9.15;;;;;;;-1.12;91.28;100692.88;5030298;28;20411;-73
2022/03/05 01:08:42;;;;;;;22.63;9.77;;;;;;;-1.09;91.36;100692.00;5033191;28;20029;-72
2022/03/05 01:11:08;;;;;;;31.58;10.63;;;;;;;-1.13;91.12;100686.03;5023752;28;20056;-71
2022/03/05 01:13:35;;;;;;;29.20;9.88;;;;;;;-1.19;90.99;100690.41;5023778;28;20046;-70
2022/03/05 01:16:00;;;;;;;38.72;10.73;;;;;;;-1.26;90.52;100680.19;5027347;28;20098;-71
2022/03/05 01:18:26;;;;;;;22.35;9.80;;;;;;;-1.28;90.71;100688.78;5032215;28;20589;-74
2022/03/05 01:20:51;;;;;;;28.92;9.88;;;;;;;-1.31;91.08;100689.66;5027667;28;20581;-73
2022/03/05 01:23:17;;;;;;;25.75;9.23;;;;;;;-1.34;90.90;100687.13;5024367;28;20067;-74
2022/03/05 01:25:42;;;;;;;34.20;11.32;;;;;;;-1.27;91.76;100683.63;5026590;28;20438;-73
2022/03/05 01:28:07;;;;;;;25.92;8.85;;;;;;;-1.19;92.36;100687.81;5019985;28;20487;-71
2022/03/05 01:30:34;;;;;;;22.73;8.70;;;;;;;-1.10;92.22;100688.56;5018339;28;20042;-72
2022/03/05 01:32:59;;;;;;;28.05;9.35;;;;;;;-1.09;91.53;100684.28;5029543;28;20037;-72
2022/03/05 01:35:25;;;;;;;21.65;9.73;;;;;;;-1.03;91.77;100686.78;5030973;28;20412;-72
2022/03/05 01:37:50;;;;;;;38.47;12.38;;;;;;;-0.92;90.98;100689.22;5029805;28;20029;-72
2022/03/05 01:40:15;;;;;;;26.33;9.13;;;;;;;-0.87;90.66;100692.56;5024191;28;20045;-74
2022/03/05 01:42:41;;;;;;;31.85;10.38;;;;;;;-0.89;90.63;100690.03;5031495;28;20033;-72
2022/03/05 01:45:09;;;;;;;25.90;8.75;;;;;;;-0.95;90.32;100690.09;5025553;28;20041;-72
2022/03/05 01:47:37;;;;;;;21.52;7.78;;;;;;;-1.00;90.75;100687.59;5030880;28;20072;-72
2022/03/05 01:50:02;;;;;;;33.03;10.43;;;;;;;-1.02;91.43;100678.19;5030676;28;20049;-72
2022/03/05 01:52:28;;;;;;;17.13;8.65;;;;;;;-1.10;91.51;100678.28;5030723;28;20060;-73
2022/03/05 01:54:53;;;;;;;25.67;10.35;;;;;;;-1.12;91.76;100682.56;5028930;28;20024;-72
2022/03/05 01:57:19;;;;;;;26.20;8.95;;;;;;;-1.09;92.18;100674.81;5022079;28;20059;-71
2022/03/05 01:59:44;;;;;;;19.70;8.88;;;;;;;-0.98;91.62;100683.25;5029999;28;20121;-72
2022/03/05 02:02:09;;;;;;;27.23;8.65;;;;;;;-0.87;91.21;100677.97;5028729;28;20029;-72
2022/03/05 02:04:35;;;;;;;30.02;9.52;;;;;;;-0.80;90.61;100677.00;5023391;28;20083;-72
2022/03/05 02:07:00;;;;;;;29.52;9.50;;;;;;;-0.71;90.06;100677.75;5030069;28;20025;-72
2022/03/05 02:09:26;;;;;;;29.55;10.05;;;;;;;-0.69;89.82;100678.59;5021899;28;20064;-72
2022/03/05 02:11:51;;;;;;;18.52;8.85;;;;;;;-0.63;89.71;100684.50;5023222;28;20037;-70
2022/03/05 02:14:18;;;;;;;20.23;8.60;;;;;;;-0.59;89.29;100677.59;5029381;28;20098;-72
2022/03/05 02:16:44;;;;;;;20.20;8.73;;;;;;;-0.51;88.82;100686.03;5029840;28;20030;-73
2022/03/05 02:19:09;;;;;;;21.55;7.53;;;;;;;-0.45;88.50;100679.94;5023196;28;20533;-74
2022/03/05 02:21:36;;;;;;;22.42;8.00;;;;;;;-0.44;88.34;100677.34;5030943;28;20025;-73
2022/03/05 02:24:01;;;;;;;27.38;8.50;;;;;;;-0.43;88.10;100676.47;5026624;28;20036;-72
2022/03/05 02:26:27;;;;;;;22.98;9.13;;;;;;;-0.39;88.71;100683.28;5029952;28;20041;-70
2022/03/05 02:28:52;;;;;;;24.73;8.85;;;;;;;-0.39;88.26;100678.13;5028068;28;20108;-72
2022/03/05 02:31:18;;;;;;;25.23;8.75;;;;;;;-0.37;88.12;100671.22;5027326;28;20451;-72
2022/03/05 02:33:43;;;;;;;23.45;10.38;;;;;;;-0.35;88.21;100666.88;5030563;28;20390;-72
2022/03/05 02:36:09;;;;;;;20.10;7.10;;;;;;;-0.34;88.21;100673.72;5020842;28;20049;-72
2022/03/05 02:38:35;;;;;;;18.10;7.40;;;;;;;-0.32;88.00;100663.41;5019187;28;20038;-73
2022/03/05 02:41:00;;;;;;;24.60;8.73;;;;;;;-0.28;88.01;100668.50;5027228;28;20035;-72
2022/03/05 02:43:26;;;;;;;25.73;8.35;;;;;;;-0.20;88.10;100668.38;5017725;28;20499;-72
2022/03/05 02:45:52;;;;;;;18.27;7.97;;;;;;;-0.16;87.47;100662.28;5026686;28;20025;-72
2022/03/05 02:48:19;;;;;;;21.90;7.80;;;;;;;-0.13;87.08;100657.06;5044233;28;20364;-72
2022/03/05 02:50:46;;;;;;;19.40;8.20;;;;;;;-0.11;86.93;100664.78;5052246;28;20033;-72
2022/03/05 02:53:12;;;;;;;17.40;7.60;;;;;;;-0.07;87.21;100662.13;5037835;28;20519;-71
2022/03/05 02:55:37;;;;;;;32.85;8.98;;;;;;;-0.01;86.81;100654.28;5026669;28;20105;-71
2022/03/05 02:58:03;;;;;;;22.70;7.97;;;;;;;-0.01;86.67;100651.69;5025691;28;20091;-70
2022/03/05 03:00:29;;;;;;;16.63;7.57;;;;;;;0.03;86.22;100643.91;5023268;28;20033;-72
2022/03/05 03:02:54;;;;;;;25.23;8.15;;;;;;;-0.02;86.27;100649.16;5029452;28;20529;-73
2022/03/05 03:05:21;;;;;;;19.75;8.02;;;;;;;-0.11;86.36;100647.59;5028970;28;20112;-75
2022/03/05 03:07:47;;;;;;;20.63;8.18;;;;;;;-0.19;87.03;100646.00;5029674;28;20068;-73
2022/03/05 03:10:13;;;;;;;19.40;7.45;;;;;;;-0.26;87.27;100653.88;5027946;28;20104;-72
2022/03/05 03:12:39;;;;;;;25.55;8.10;;;;;;;-0.35;87.62;100659.16;5023644;28;20021;-73
2022/03/05 03:15:06;;;;;;;22.05;7.22;;;;;;;-0.39;87.96;100664.38;5026042;28;20025;-72
2022/03/05 03:17:49;;;;;;;19.80;7.68;;;;;;;-0.52;87.91;100662.00;5029212;28;20553;-72
2022/03/05 03:20:19;;;;;;;22.77;8.77;;;;;;;-0.61;88.93;100658.72;5024852;28;20515;-72
2022/03/05 03:22:45;;;;;;;26.95;8.02;;;;;;;-0.65;89.25;100663.06;5021104;28;20033;-70
2022/03/05 03:25:11;;;;;;;17.25;7.57;;;;;;;-0.70;89.16;100653.69;5026503;28;20175;-70
2022/03/05 03:27:37;;;;;;;29.33;8.10;;;;;;;-0.72;89.62;100651.16;5026959;28;20625;-71
2022/03/05 03:30:04;;;;;;;22.83;8.80;;;;;;;-0.74;90.09;100650.34;5022993;28;20439;-71
2022/03/05 03:32:30;;;;;;;22.65;9.25;;;;;;;-0.76;90.03;100654.66;5029208;28;20041;-70
2022/03/05 03:34:55;;;;;;;22.50;8.95;;;;;;;-0.84;90.07;100653.91;5029201;28;20037;-71
2022/03/05 03:37:20;;;;;;;23.60;8.43;;;;;;;-0.88;90.53;100652.25;5029323;28;20025;-70
2022/03/05 03:39:46;;;;;;;22.73;8.68;;;;;;;-0.86;90.53;100653.06;5029455;28;20029;-71
2022/03/05 03:42:11;;;;;;;23.38;9.40;;;;;;;-0.92;90.81;100650.59;5029541;28;20626;-71
2022/03/05 03:44:37;;;;;;;21.65;8.40;;;;;;;-1.02;90.39;100655.00;5029317;28;20491;-71
2022/03/05 03:47:02;;;;;;;26.52;9.38;;;;;;;-1.11;90.66;100655.13;5027987;28;20029;-71
2022/03/05 03:49:28;;;;;;;26.40;8.93;;;;;;;-1.18;91.51;100651.81;5029100;28;20352;-70
2022/03/05 03:51:53;;;;;;;26.10;9.23;;;;;;;-1.17;91.81;100655.22;5029542;28;20108;-70
2022/03/05 03:54:18;;;;;;;22.25;9.50;;;;;;;-1.18;92.11;100662.09;5028463;28;20037;-71
2022/03/05 03:56:43;;;;;;;23.48;9.68;;;;;;;-1.22;92.30;100657.84;5028836;28;20211;-71
2022/03/05 03:59:09;;;;;;;31.77;9.27;;;;;;;-1.25;92.06;100658.75;5029198;28;20041;-71
2022/03/05 04:01:34;;;;;;;26.77;8.82;;;;;;;-1.32;92.49;100662.25;5027486;28;20044;-71
2022/03/05 04:04:00;;;;;;;27.98;10.35;;;;;;;-1.33;93.02;100659.72;5020628;28;20491;-72
2022/03/05 04:08:41;;;;;;;23.70;10.30;;;;;;;-1.36;92.98;100665.75;5026196;28;20048;-73
2022/03/05 04:09:11;;;;;;;26.40;8.25;;;;;;;-1.39;92.84;100663.19;5028131;28;20041;-70
2022/03/05 04:11:36;;;;;;;21.27;8.70;;;;;;;-1.42;93.16;100668.38;5028532;28;20033;-71
2022/03/05 04:14:01;;;;;;;23.17;9.23;;;;;;;-1.52;93.33;100667.66;5021665;28;20037;-72
2022/03/05 04:16:27;;;;;;;23.00;8.80;;;;;;;-1.54;93.18;100668.53;5025724;28;20022;-72
2022/03/05 04:18:52;;;;;;;25.80;9.27;;;;;;;-1.54;93.80;100671.94;5020707;28;20077;-71
2022/03/05 04:21:17;;;;;;;25.38;9.70;;;;;;;-1.48;93.95;100676.19;5018662;28;20043;-72
2022/03/05 04:23:42;;;;;;;26.83;10.35;;;;;;;-1.48;93.68;100677.03;5027738;28;20477;-71
2022/03/05 04:26:08;;;;;;;24.10;9.13;;;;;;;-1.51;93.86;100679.63;5017631;28;20041;-72
2022/03/05 04:28:34;;;;;;;37.92;11.55;;;;;;;-1.49;93.96;100683.00;5022587;28;20449;-72
2022/03/05 04:30:59;;;;;;;23.95;8.98;;;;;;;-1.54;93.77;100678.81;5021502;28;20014;-72
2022/03/05 04:33:25;;;;;;;19.00;9.10;;;;;;;-1.57;94.33;100678.84;5021291;28;20064;-71
2022/03/05 04:35:50;;;;;;;18.13;8.27;;;;;;;-1.58;94.19;100678.00;5025332;28;20459;-71
2022/03/05 04:38:15;;;;;;;18.80;9.00;;;;;;;-1.64;93.95;100680.63;5021478;28;20624;-72
2022/03/05 04:40:41;;;;;;;21.92;9.30;;;;;;;-1.61;94.58;100682.31;5017145;28;20036;-73
2022/03/05 04:43:06;;;;;;;30.58;8.57;;;;;;;-1.61;94.45;100682.31;5028351;28;20407;-71
2022/03/05 04:45:31;;;;;;;24.20;9.35;;;;;;;-1.67;94.12;100680.63;5028248;28;20080;-71
2022/03/05 04:47:56;;;;;;;34.05;9.63;;;;;;;-1.76;94.37;100681.59;5027864;28;20067;-72
2022/03/05 04:50:22;;;;;;;24.75;9.30;;;;;;;-1.80;95.04;100685.06;5020712;28;20088;-70
2022/03/05 04:52:47;;;;;;;25.40;9.63;;;;;;;-1.84;95.27;100679.97;5016262;28;20046;-72
2022/03/05 04:55:12;;;;;;;27.33;8.82;;;;;;;-1.91;94.85;100686.91;5021436;28;20025;-71
2022/03/05 04:57:38;;;;;;;19.23;8.20;;;;;;;-1.96;94.90;100681.81;5027233;28;20453;-73
2022/03/05 05:00:07;;;;;;;24.95;9.38;;;;;;;-1.97;95.20;100681.78;5020078;28;20038;-72
2022/03/05 05:02:32;;;;;;;25.27;8.82;;;;;;;-2.00;95.29;100685.28;5027732;28;20048;-71
2022/03/05 05:04:58;;;;;;;23.77;9.13;;;;;;;-2.03;95.28;100684.44;5018115;28;20026;-72
2022/03/05 05:07:23;;;;;;;20.02;9.27;;;;;;;-2.07;95.19;100687.91;5024657;28;20021;-69
2022/03/05 05:09:48;;;;;;;25.10;9.38;;;;;;;-2.13;95.32;100701.66;5021311;28;20026;-71
2022/03/05 05:12:14;;;;;;;23.13;9.43;;;;;;;-2.17;95.20;100696.56;5016033;28;20521;-71
2022/03/05 05:14:39;;;;;;;24.73;9.50;;;;;;;-2.20;95.32;100693.13;5020751;28;20530;-71
2022/03/05 05:17:05;;;;;;;19.92;8.73;;;;;;;-2.22;95.61;100694.88;5019000;28;20798;-72
2022/03/05 05:19:30;;;;;;;18.23;8.20;;;;;;;-2.21;96.21;100696.56;5027762;28;20124;-72
2022/03/05 05:22:01;;;;;;;29.17;9.43;;;;;;;-2.18;96.36;100700.00;5025337;28;20025;-72
2022/03/05 05:24:30;;;;;;;27.02;10.55;;;;;;;-2.24;96.03;100696.59;5022628;28;20038;-72
2022/03/05 05:26:56;;;;;;;26.63;9.48;;;;;;;-2.26;95.92;100698.34;5020876;28;20067;-73
2022/03/05 05:29:22;;;;;;;24.75;9.73;;;;;;;-2.27;96.47;100703.47;5025703;28;20030;-70
2022/03/05 05:31:48;;;;;;;20.17;8.68;;;;;;;-2.31;96.32;100705.22;5022050;28;20041;-71
2022/03/05 05:34:14;;;;;;;29.17;10.15;;;;;;;-2.35;96.23;100703.53;5025432;28;20040;-71
2022/03/05 05:36:39;;;;;;;26.67;10.15;;;;;;;-2.35;96.16;100711.22;5020208;28;20395;-71
2022/03/05 05:39:08;;;;;;;24.38;9.48;;;;;;;-2.27;97.09;100706.03;5028739;28;20090;-71
2022/03/05 05:41:35;;;;;;;23.92;9.65;;;;;;;-2.33;96.32;100703.53;5031368;28;20030;-69
2022/03/05 05:44:04;;;;;;;25.27;8.75;;;;;;;-2.37;96.45;100705.28;5029868;28;20524;-70
2022/03/05 05:46:30;;;;;;;22.05;9.48;;;;;;;-2.40;96.11;100709.56;5031182;28;20123;-71
2022/03/05 05:48:56;;;;;;;22.23;9.90;;;;;;;-2.29;97.12;100716.34;5031452;28;20471;-71
2022/03/05 05:51:22;;;;;;;20.08;9.48;;;;;;;-2.25;97.41;100705.16;5026171;28;20109;-71
2022/03/05 05:53:47;;;;;;;22.77;8.80;;;;;;;-2.24;97.18;100708.59;5026695;28;20049;-70
2022/03/05 05:56:12;;;;;;;24.65;9.27;;;;;;;-2.25;96.95;100699.19;5028662;28;20037;-70
2022/03/05 05:58:38;;;;;;;25.77;10.30;;;;;;;-2.24;97.07;100701.72;5028296;28;20060;-71
2022/03/05 06:01:03;;;;;;;23.30;9.93;;;;;;;-2.17;97.24;100707.69;5029443;28;20021;-72
2022/03/05 06:03:29;;;;;;;29.15;9.88;;;;;;;-2.08;96.78;100699.88;5021693;28;20083;-72
2022/03/05 06:05:57;;;;;;;22.25;9.38;;;;;;;-2.05;96.70;100712.69;5023140;28;20396;-72
2022/03/05 06:08:22;;;;;;;27.23;9.80;;;;;;;-2.00;96.59;100712.69;5029249;28;20509;-72
2022/03/05 06:10:48;;;;;;;26.63;9.63;;;;;;;-1.93;96.69;100711.72;5030952;28;20037;-72
2022/03/05 06:13:13;;;;;;;27.23;11.60;;;;;;;-1.83;96.33;100718.50;5025239;28;20040;-71
2022/03/05 06:15:38;;;;;;;26.58;11.45;;;;;;;-1.71;95.86;100714.97;5030044;28;20032;-71
2022/03/05 06:18:04;;;;;;;32.10;12.23;;;;;;;-1.62;95.37;100717.47;5025459;28;20110;-71
2022/03/05 06:20:29;;;;;;;26.88;10.32;;;;;;;-1.53;94.48;100719.91;5029466;28;20116;-71
2022/03/05 06:22:54;;;;;;;32.75;11.02;;;;;;;-1.44;94.11;100723.28;5030965;28;20041;-71
2022/03/05 06:25:20;;;;;;;27.42;9.60;;;;;;;-1.38;93.88;100725.78;5028024;28;20026;-72
2022/03/05 06:27:45;;;;;;;20.80;9.63;;;;;;;-1.32;93.22;100721.41;5024085;28;20033;-72
2022/03/05 06:30:12;;;;;;;26.77;10.40;;;;;;;-1.25;92.94;100723.06;5032451;28;20112;-72
2022/03/05 06:32:37;;;;;;;25.25;9.25;;;;;;;-1.19;92.11;100718.69;5043124;28;20037;-73
2022/03/05 06:35:05;;;;;;;33.90;10.48;;;;;;;-1.19;92.19;100722.13;5049639;28;20103;-72
2022/03/05 06:37:30;;;;;;;24.83;11.32;;;;;;;-1.17;91.93;100727.25;5027697;28;20046;-71
2022/03/05 06:39:55;;;;;;;23.30;10.68;;;;;;;-1.11;92.93;100727.16;5030771;28;20028;-72
2022/03/05 06:42:21;;;;;;;26.38;11.13;;;;;;;-1.10;91.74;100736.63;5021933;28;20030;-72
2022/03/05 06:44:46;;;;;;;24.65;10.75;;;;;;;-1.09;92.15;100738.31;5018849;28;20456;-72
2022/03/05 06:47:11;;;;;;;24.88;10.50;;;;;;;-1.08;91.75;100735.69;5022125;28;20079;-72
2022/03/05 06:49:36;;;;;;;24.58;11.00;;;;;;;-0.82;94.03;100735.38;5022333;28;20133;-72
2022/03/05 06:52:02;;;;;;;21.05;10.88;;;;;;;-0.84;90.81;100737.13;5026323;28;20029;-71
2022/03/05 06:54:27;;;;;;;26.73;11.25;;;;;;;-0.80;91.49;100741.38;5024749;28;20029;-71
2022/03/05 06:56:53;;;;;;;28.20;10.88;;;;;;;-0.81;91.34;100739.69;5029503;28;20100;-72
2022/03/05 06:59:18;;;;;;;22.80;12.05;;;;;;;-0.75;90.24;100749.03;5029676;28;20103;-72
2022/03/05 07:01:43;;;;;;;31.83;11.85;;;;;;;-0.80;89.75;100751.66;5018489;28;20418;-72
2022/03/05 07:04:09;;;;;;;32.47;11.73;;;;;;;-0.84;90.11;100755.16;5018972;28;20037;-71
2022/03/05 07:06:34;;;;;;;43.35;14.95;;;;;;;-0.94;89.94;100753.56;5028380;28;20029;-71
2022/03/05 07:09:00;;;;;;;34.67;13.38;;;;;;;-0.95;90.35;100751.88;5026313;28;20028;-71
2022/03/05 07:11:25;;;;;;;29.60;13.77;;;;;;;-0.95;90.49;100751.03;5015254;28;20029;-72
2022/03/05 07:13:50;;;;;;;36.22;16.20;;;;;;;-0.89;90.54;100754.38;5027081;28;20515;-69
2022/03/05 07:16:16;;;;;;;29.95;13.52;;;;;;;-0.87;90.42;100752.63;5017500;28;20034;-73
2022/03/05 07:18:42;;;;;;;74.85;23.73;;;;;;;-0.84;90.50;100762.03;5030401;28;20021;-72
2022/03/05 07:21:07;;;;;;;38.42;11.90;;;;;;;-0.82;90.54;100763.69;5029354;28;20124;-73
2022/03/05 07:23:32;;;;;;;37.35;12.02;;;;;;;-0.77;90.31;100769.66;5029268;28;20091;-72
2022/03/05 07:25:57;;;;;;;47.70;18.75;;;;;;;-0.68;90.06;100757.53;5024522;28;20029;-73
2022/03/05 07:28:23;;;;;;;28.55;13.65;;;;;;;-0.57;89.98;100761.66;5022762;28;20025;-71
2022/03/05 07:30:48;;;;;;;37.55;15.07;;;;;;;-0.46;89.79;100764.09;5024302;28;20100;-72
2022/03/05 07:33:14;;;;;;;35.65;15.00;;;;;;;-0.31;88.93;100768.16;5029902;28;20083;-73
2022/03/05 07:35:39;;;;;;;27.20;11.82;;;;;;;-0.16;88.16;100769.66;5029095;28;20038;-73
2022/03/05 07:38:04;;;;;;;30.90;12.52;;;;;;;0.00;87.05;100776.31;5029278;28;20017;-70
2022/03/05 07:40:30;;;;;;;24.58;12.20;;;;;;;0.11;86.37;100778.69;5034065;28;20033;-71
2022/03/05 07:42:55;;;;;;;30.15;12.77;;;;;;;0.22;85.88;100782.81;5029314;28;20026;-69
2022/03/05 07:45:20;;;;;;;32.05;14.20;;;;;;;0.31;85.17;100781.81;5025742;28;20053;-72
2022/03/05 07:47:46;;;;;;;25.88;12.77;;;;;;;0.44;84.95;100777.28;5017717;28;20077;-71
2022/03/05 07:50:11;;;;;;;31.15;12.00;;;;;;;0.56;84.97;100779.66;5026038;28;20435;-71
2022/03/05 07:52:37;;;;;;;30.25;13.32;;;;;;;0.64;84.54;100771.78;5029325;28;20044;-71
2022/03/05 07:55:03;;;;;;;33.13;12.40;;;;;;;0.69;84.49;100773.38;5028781;28;20108;-71
2022/03/05 07:57:28;;;;;;;32.17;12.25;;;;;;;0.76;84.28;100768.97;5028270;28;20033;-71
2022/03/05 07:59:54;;;;;;;33.03;13.05;;;;;;;0.79;84.30;100773.22;5028903;28;20045;-72
2022/03/05 08:02:19;;;;;;;36.45;13.38;;;;;;;0.86;84.49;100773.06;5024075;28;20393;-71
2022/03/05 08:04:44;;;;;;;31.52;13.23;;;;;;;0.88;84.01;100776.47;5018636;28;20116;-72
2022/03/05 08:07:10;;;;;;;41.10;15.25;;;;;;;0.91;83.86;100775.56;5030241;28;20384;-72
2022/03/05 08:09:36;;;;;;;31.42;14.07;;;;;;;0.92;83.34;100772.94;5029920;28;20033;-72
2022/03/05 08:12:05;;;;;;;39.13;15.15;;;;;;;0.99;83.49;100778.84;5029295;28;20033;-72
2022/03/05 08:14:30;;;;;;;44.20;14.98;;;;;;;1.08;83.40;100783.00;5028125;28;20075;-74
2022/03/05 08:16:55;;;;;;;34.97;13.38;;;;;;;1.13;82.52;100779.41;5016420;28;20061;-73
2022/03/05 08:19:21;;;;;;;36.35;14.40;;;;;;;1.14;82.30;100777.69;5023989;28;20025;-71
2022/03/05 08:21:46;;;;;;;40.28;14.05;;;;;;;1.25;82.30;100783.47;5029073;28;20112;-72
2022/03/05 08:24:11;;;;;;;35.97;13.93;;;;;;;1.26;82.19;100782.63;5028720;28;20495;-74
2022/03/05 08:26:37;;;;;;;30.10;13.38;;;;;;;1.39;81.64;100778.88;5028432;28;20558;-72
2022/03/05 08:29:03;;;;;;;28.23;13.77;;;;;;;1.49;81.64;100789.88;5023449;28;20066;-72
2022/03/05 08:31:30;;;;;;;34.22;12.35;;;;;;;1.60;81.36;100787.91;5028523;28;20072;-72
2022/03/05 08:33:58;;;;;;;33.40;12.82;;;;;;;1.71;81.08;100782.50;5027319;28;20021;-72
2022/03/05 08:36:23;;;;;;;29.38;13.27;;;;;;;1.76;80.43;100788.41;5025550;28;20026;-72
2022/03/05 08:38:48;;;;;;;39.13;13.63;;;;;;;1.87;80.85;100788.16;5019505;28;20380;-73
2022/03/05 08:41:14;;;;;;;29.02;12.65;;;;;;;1.94;79.58;100788.00;5026723;28;20065;-73
2022/03/05 08:43:39;;;;;;;28.42;12.90;;;;;;;1.96;78.79;100787.09;5023509;28;20046;-72
2022/03/05 08:46:05;;;;;;;47.67;15.07;;;;;;;1.96;79.19;100793.13;5025542;28;20402;-74
2022/03/05 08:48:31;;;;;;;32.72;13.52;;;;;;;2.03;78.93;100792.09;5020836;28;20030;-73
2022/03/05 08:50:56;;;;;;;40.85;16.52;;;;;;;2.06;78.31;100794.59;5027738;28;20041;-73
2022/03/05 08:53:22;;;;;;;26.98;12.02;;;;;;;2.20;77.16;100799.47;5027590;28;20032;-73
2022/03/05 08:55:47;;;;;;;29.85;11.75;;;;;;;2.25;77.40;100792.41;5024695;28;20045;-74
2022/03/05 08:58:12;;;;;;;30.08;12.23;;;;;;;2.34;76.35;100786.19;5026601;28;20070;-69
2022/03/05 09:00:38;;;;;;;31.25;10.68;;;;;;;2.42;75.55;100785.09;5018547;28;20024;-72
2022/03/05 09:03:03;;;;;;;26.00;11.80;;;;;;;2.44;74.77;100787.63;5026502;28;20030;-71
2022/03/05 09:05:29;;;;;;;95.22;30.60;;;;;;;2.45;72.78;100786.78;5025963;28;20092;-71
2022/03/05 09:07:54;;;;;;;71.10;23.73;;;;;;;2.47;72.60;100781.53;5029503;28;20388;-71
2022/03/05 09:10:19;;;;;;;52.85;22.13;;;;;;;2.45;72.61;100783.31;5031514;28;20112;-71
2022/03/05 09:12:44;;;;;;;23.52;9.80;;;;;;;2.64;71.28;100780.22;5031665;28;20014;-71
2022/03/05 09:15:10;;;;;;;29.92;8.65;;;;;;;2.69;70.26;100774.06;5025939;28;20487;-69
2022/03/05 09:17:35;;;;;;;29.63;10.60;;;;;;;2.70;70.64;100770.56;5031664;28;20070;-72
2022/03/05 09:20:01;;;;;;;33.92;11.27;;;;;;;2.73;71.08;100781.72;5029648;28;20045;-70
2022/03/05 09:22:26;;;;;;;23.30;9.13;;;;;;;2.80;70.24;100775.47;5031202;28;20254;-70
2022/03/05 09:24:51;;;;;;;29.45;9.10;;;;;;;2.85;69.56;100781.38;5031221;28;20014;-72
2022/03/05 09:27:17;;;;;;;35.13;9.20;;;;;;;2.93;69.81;100778.59;5025164;28;20224;-72
2022/03/05 09:29:42;;;;;;;29.63;10.15;;;;;;;2.95;68.42;100775.94;5028600;28;20123;-73
2022/03/05 09:32:08;;;;;;;21.85;8.13;;;;;;;2.96;68.01;100772.47;5024183;28;20041;-72
2022/03/05 09:34:34;;;;;;;32.75;9.50;;;;;;;3.08;68.81;100772.97;5028429;28;20029;-72
2022/03/05 09:36:59;;;;;;;25.30;9.23;;;;;;;3.10;68.38;100773.78;5023965;28;20120;-73
2022/03/05 09:39:25;;;;;;;23.10;8.63;;;;;;;3.16;68.29;100775.34;5025409;28;20055;-70
2022/03/05 09:41:51;;;;;;;26.15;10.45;;;;;;;3.24;67.85;100777.72;5030155;28;20060;-72
2022/03/05 09:44:17;;;;;;;22.55;10.20;;;;;;;3.28;68.69;100774.16;5030340;28;20126;-71
2022/03/05 09:46:43;;;;;;;25.13;10.18;;;;;;;3.32;68.37;100776.59;5025608;28;20115;-73
2022/03/05 09:49:09;;;;;;;26.55;9.18;;;;;;;3.44;67.60;100771.94;5031781;28;20356;-73
2022/03/05 09:51:35;;;;;;;17.65;8.30;;;;;;;3.48;66.50;100771.81;5031677;28;20037;-72
2022/03/05 09:54:02;;;;;;;22.75;8.35;;;;;;;3.60;66.27;100771.47;5030512;28;20470;-72
2022/03/05 09:56:28;;;;;;;22.83;8.30;;;;;;;3.66;66.30;100769.56;5024546;28;20041;-72
2022/03/05 09:58:54;;;;;;;26.63;10.70;;;;;;;3.82;66.44;100771.66;5028480;28;20036;-72
2022/03/05 10:01:20;;;;;;;28.35;10.02;;;;;;;3.93;66.40;100767.84;5027748;28;20029;-72
2022/03/05 10:03:50;;;;;;;21.33;9.05;;;;;;;3.96;63.83;100763.41;5031015;28;20033;-70
2022/03/05 10:06:17;;;;;;;21.95;8.48;;;;;;;4.10;63.45;100763.81;5034491;28;20068;-74
2022/03/05 10:08:43;;;;;;;25.42;9.50;;;;;;;4.25;64.06;100765.06;5051992;28;20056;-72
2022/03/05 10:11:11;;;;;;;28.80;8.75;;;;;;;4.43;62.87;100760.16;5051692;28;20029;-71
2022/03/05 10:13:37;;;;;;;36.78;10.38;;;;;;;4.60;62.35;100758.69;5032370;28;20034;-71
2022/03/05 10:16:04;;;;;;;18.02;6.60;;;;;;;4.63;60.68;100762.06;5030162;28;20489;-69
2022/03/05 10:18:30;;;;;;;18.35;7.80;;;;;;;4.60;61.24;100761.28;5022029;28;20094;-73
2022/03/05 10:20:56;;;;;;;20.27;7.78;;;;;;;4.49;60.81;100759.97;5022018;28;20121;-71
2022/03/05 10:23:22;;;;;;;26.42;11.07;;;;;;;4.44;61.06;100757.50;5024156;28;20067;-71
2022/03/05 10:25:50;;;;;;;17.20;8.10;;;;;;;4.38;61.21;100749.09;5029523;28;20471;-72
2022/03/05 10:28:24;;;;;;;17.83;7.07;;;;;;;4.32;61.08;100756.16;5021775;28;20112;-71
2022/03/05 10:30:55;;;;;;;29.05;6.88;;;;;;;4.40;61.44;100763.69;5030538;28;20297;-72
2022/03/05 10:33:45;;;;;;;22.80;7.68;;;;;;;4.30;61.93;100757.09;5026144;28;20059;-71
2022/03/05 10:36:18;;;;;;;15.52;7.47;;;;;;;4.38;61.51;100752.53;5029653;28;20116;-72
2022/03/05 10:38:45;;;;;;;15.55;7.40;;;;;;;4.48;61.53;100759.09;5030684;28;20406;-73
2022/03/05 10:41:10;;;;;;;17.63;7.55;;;;;;;4.48;61.64;100761.69;5026795;28;20049;-72
2022/03/05 10:43:36;;;;;;;20.02;8.13;;;;;;;4.46;61.90;100763.50;5029767;28;20037;-71
2022/03/05 10:46:01;;;;;;;19.58;7.25;;;;;;;4.58;61.63;100759.63;5030604;28;20021;-72
2022/03/05 10:48:28;;;;;;;18.48;6.43;;;;;;;4.69;61.03;100757.50;5038056;28;20040;-71
2022/03/05 10:51:02;;;;;;;21.90;8.00;;;;;;;4.83;60.01;100754.44;5025284;28;20466;-72
2022/03/05 10:53:42;;;;;;;15.57;7.13;;;;;;;4.99;59.82;100746.91;5024796;28;20426;-71
2022/03/05 10:56:26;;;;;;;36.55;7.10;;;;;;;5.09;59.91;100743.94;5030198;28;20041;-69
2022/03/05 10:59:08;;;;;;;21.20;6.75;;;;;;;5.13;58.62;100747.25;5024048;28;20086;-72
2022/03/05 11:01:42;;;;;;;21.00;8.18;;;;;;;5.14;58.69;100748.09;5030018;28;20458;-70
2022/03/05 11:04:10;;;;;;;21.67;7.75;;;;;;;5.08;58.71;100742.25;5020750;28;20664;-68
2022/03/05 11:06:41;;;;;;;17.98;7.70;;;;;;;4.96;58.99;100740.06;5026393;28;20053;-72
2022/03/05 11:09:08;;;;;;;18.85;7.80;;;;;;;4.90;60.15;100740.31;5041788;28;20121;-71
2022/03/05 11:11:43;;;;;;;17.73;8.48;;;;;;;4.93;60.50;100741.94;5030070;28;20033;-72